createdAt,value
2017-07-08T00:01:22.011Z,6.43
2017-07-08T00:03:48.428Z,6.90
2017-07-08T00:06:14.870Z,7.37
2017-07-08T00:08:42.022Z,7.00
2017-07-08T00:11:09.469Z,7.70
2017-07-08T00:13:36.611Z,8.60
2017-07-08T00:16:03.002Z,7.33
2017-07-08T00:18:29.417Z,7.93
2017-07-08T00:20:55.812Z,8.00
2017-07-08T00:23:22.240Z,7.80
2017-07-08T00:25:48.645Z,8.23
2017-07-08T00:28:15.046Z,8.30
2017-07-08T00:30:41.451Z,9.07
2017-07-08T00:33:08.630Z,7.73
2017-07-08T00:35:35.040Z,8.97
2017-07-08T00:38:02.216Z,7.93
2017-07-08T00:40:28.617Z,8.30
2017-07-08T00:42:55.801Z,8.33
2017-07-08T00:45:28.013Z,9.20
2017-07-08T00:47:54.408Z,8.40
2017-07-08T00:50:20.834Z,8.20
2017-07-08T00:52:47.274Z,9.00
2017-07-08T00:55:13.664Z,7.50
2017-07-08T00:57:40.854Z,8.90
2017-07-08T01:00:07.279Z,8.03
2017-07-08T01:02:33.703Z,9.17
2017-07-08T01:05:00.130Z,8.37
2017-07-08T01:07:26.547Z,9.40
2017-07-08T01:09:53.715Z,10.40
2017-07-08T01:12:20.162Z,9.33
2017-07-08T01:14:46.559Z,9.77
2017-07-08T01:17:12.962Z,10.93
2017-07-08T01:19:39.381Z,9.30
2017-07-08T01:22:05.840Z,9.80
2017-07-08T01:24:32.257Z,9.40
2017-07-08T01:26:58.655Z,8.40
2017-07-08T01:29:25.058Z,8.50
2017-07-08T01:31:52.247Z,7.47
2017-07-08T01:34:18.647Z,6.83
2017-07-08T01:36:45.813Z,8.07
2017-07-08T01:39:12.975Z,8.50
2017-07-08T01:41:39.397Z,7.67
2017-07-08T01:44:05.829Z,8.10
2017-07-08T01:46:32.266Z,7.90
2017-07-08T01:48:58.680Z,7.00
2017-07-08T01:51:25.842Z,7.20
2017-07-08T01:53:52.462Z,7.93
2017-07-08T01:56:19.659Z,7.17
2017-07-08T01:58:46.041Z,7.03
2017-07-08T02:01:13.232Z,6.93
2017-07-08T02:03:39.644Z,6.93
2017-07-08T02:06:06.041Z,7.40
2017-07-08T02:08:32.457Z,7.33
2017-07-08T02:10:59.216Z,9.57
2017-07-08T02:13:25.647Z,9.40
2017-07-08T02:15:52.045Z,8.03
2017-07-08T02:18:18.477Z,6.70
2017-07-08T02:20:44.919Z,7.60
2017-07-08T02:23:11.288Z,8.53
2017-07-08T02:25:37.715Z,6.60
2017-07-08T02:28:04.147Z,7.40
2017-07-08T02:30:30.579Z,6.50
2017-07-08T02:32:56.994Z,7.13
2017-07-08T02:35:23.379Z,7.10
2017-07-08T02:37:49.796Z,7.47
2017-07-08T02:40:16.933Z,7.13
2017-07-08T02:42:43.325Z,6.73
2017-07-08T02:45:09.734Z,7.40
2017-07-08T02:47:36.206Z,7.20
2017-07-08T02:50:02.624Z,7.30
2017-07-08T02:52:29.057Z,7.00
2017-07-08T02:54:55.522Z,6.93
2017-07-08T02:57:21.937Z,6.80
2017-07-08T02:59:48.423Z,7.30
2017-07-08T03:02:14.869Z,6.93
2017-07-08T03:04:41.287Z,7.20
2017-07-08T03:07:07.695Z,7.17
2017-07-08T03:09:34.099Z,7.00
2017-07-08T03:12:00.509Z,7.90
2017-07-08T03:14:26.901Z,6.73
2017-07-08T03:16:53.308Z,7.80
2017-07-08T03:19:19.708Z,6.83
2017-07-08T03:21:46.117Z,7.23
2017-07-08T03:24:12.522Z,7.23
2017-07-08T03:26:38.949Z,8.50
2017-07-08T03:29:05.342Z,7.40
2017-07-08T03:31:31.788Z,7.03
2017-07-08T03:33:58.205Z,7.07
2017-07-08T03:36:24.595Z,8.10
2017-07-08T03:38:51.191Z,7.67
2017-07-08T03:41:17.601Z,8.03
2017-07-08T03:43:43.993Z,7.93
2017-07-08T03:46:10.403Z,7.60
2017-07-08T03:48:36.849Z,7.93
2017-07-08T03:51:03.270Z,8.30
2017-07-08T03:53:29.697Z,7.90
2017-07-08T03:55:56.127Z,8.13
2017-07-08T03:58:22.532Z,8.13
2017-07-08T04:00:48.961Z,7.10
2017-07-08T04:03:15.399Z,8.00
2017-07-08T04:05:41.799Z,8.23
2017-07-08T04:08:09.042Z,8.17
2017-07-08T04:10:36.279Z,7.23
2017-07-08T04:13:02.695Z,8.80
2017-07-08T04:15:29.077Z,7.93
2017-07-08T04:17:55.508Z,9.90
2017-07-08T04:20:22.656Z,8.03
2017-07-08T04:22:49.827Z,8.63
2017-07-08T04:25:16.264Z,9.63
2017-07-08T04:27:42.653Z,9.33
2017-07-08T04:30:09.044Z,9.20
2017-07-08T04:32:35.461Z,8.93
2017-07-08T04:35:01.908Z,8.97
2017-07-08T04:37:28.329Z,9.40
2017-07-08T04:39:54.734Z,8.70
2017-07-08T04:42:21.895Z,9.30
2017-07-08T04:44:48.304Z,8.67
2017-07-08T04:47:15.445Z,8.90
2017-07-08T04:49:41.927Z,8.50
2017-07-08T04:52:08.342Z,8.20
2017-07-08T04:54:34.790Z,8.50
2017-07-08T04:57:01.177Z,8.10
2017-07-08T04:59:28.018Z,7.97
2017-07-08T05:02:01.505Z,8.50
2017-07-08T05:04:27.911Z,8.40
2017-07-08T05:06:54.337Z,7.37
2017-07-08T05:09:20.791Z,7.40
2017-07-08T05:11:47.180Z,7.57
2017-07-08T05:14:14.339Z,7.37
2017-07-08T05:16:40.767Z,8.00
2017-07-08T05:19:07.210Z,8.63
2017-07-08T05:21:33.619Z,8.40
2017-07-08T05:24:00.757Z,7.60
2017-07-08T05:26:27.170Z,8.87
2017-07-08T05:28:53.589Z,8.30
2017-07-08T05:31:20.061Z,8.07
2017-07-08T05:33:47.210Z,9.07
2017-07-08T05:36:14.375Z,9.13
2017-07-08T05:38:40.797Z,9.20
2017-07-08T05:41:07.949Z,8.83
2017-07-08T05:43:35.138Z,8.47
2017-07-08T05:46:01.562Z,9.47
2017-07-08T05:48:27.940Z,8.23
2017-07-08T05:50:54.364Z,8.13
2017-07-08T05:53:20.777Z,7.70
2017-07-08T05:55:47.244Z,8.90
2017-07-08T05:58:13.647Z,8.40
2017-07-08T06:00:40.090Z,8.00
2017-07-08T06:03:06.509Z,7.77
2017-07-08T06:05:32.927Z,7.40
2017-07-08T06:07:59.346Z,7.87
2017-07-08T06:10:25.823Z,7.20
2017-07-08T06:12:52.229Z,8.33
2017-07-08T06:15:18.655Z,7.87
2017-07-08T06:17:45.046Z,8.57
2017-07-08T06:20:11.468Z,6.80
2017-07-08T06:22:37.877Z,6.40
2017-07-08T06:25:04.284Z,6.70
2017-07-08T06:27:30.698Z,6.63
2017-07-08T06:29:57.082Z,6.60
2017-07-08T06:32:23.487Z,6.13
2017-07-08T06:34:49.893Z,6.37
2017-07-08T06:37:17.031Z,7.03
2017-07-08T06:39:43.435Z,6.57
2017-07-08T06:42:09.867Z,6.47
2017-07-08T06:44:36.254Z,6.07
2017-07-08T06:47:02.691Z,7.10
2017-07-08T06:49:29.101Z,6.50
2017-07-08T06:51:56.260Z,6.67
2017-07-08T06:54:22.642Z,5.70
2017-07-08T06:56:49.061Z,6.70
2017-07-08T06:59:15.493Z,5.40
2017-07-08T07:01:41.893Z,6.87
2017-07-08T07:04:08.301Z,6.20
2017-07-08T07:06:34.704Z,6.03
2017-07-08T07:09:01.108Z,6.23
2017-07-08T07:11:27.541Z,7.07
2017-07-08T07:13:53.948Z,6.20
2017-07-08T07:16:34.688Z,6.60
2017-07-08T07:19:01.209Z,6.30
2017-07-08T07:21:27.619Z,6.27
2017-07-08T07:23:54.025Z,6.47
2017-07-08T07:26:20.424Z,6.70
2017-07-08T07:28:47.046Z,6.20
2017-07-08T07:31:13.457Z,6.30
2017-07-08T07:33:39.864Z,5.90
2017-07-08T07:36:07.027Z,5.60
2017-07-08T07:38:33.465Z,6.33
2017-07-08T07:40:59.867Z,6.10
2017-07-08T07:43:27.006Z,6.20
2017-07-08T07:45:53.406Z,6.23
2017-07-08T07:48:19.861Z,5.30
2017-07-08T07:50:46.281Z,5.83
2017-07-08T07:53:12.704Z,5.43
2017-07-08T07:55:39.142Z,5.73
2017-07-08T07:58:05.542Z,5.70
2017-07-08T08:00:31.908Z,6.23
2017-07-08T08:03:13.229Z,5.57
2017-07-08T08:05:40.376Z,5.60
2017-07-08T08:08:07.531Z,5.90
2017-07-08T08:10:33.919Z,4.73
2017-07-08T08:13:00.356Z,5.17
2017-07-08T08:15:26.734Z,5.40
2017-07-08T08:17:53.154Z,5.10
2017-07-08T08:20:20.294Z,4.97
2017-07-08T08:22:46.699Z,4.10
2017-07-08T08:25:13.084Z,4.00
2017-07-08T08:27:39.465Z,4.30
2017-07-08T08:30:05.903Z,4.43
2017-07-08T08:32:32.368Z,3.80
2017-07-08T08:34:58.789Z,4.30
2017-07-08T08:37:25.196Z,3.50
2017-07-08T08:39:51.632Z,4.50
2017-07-08T08:42:18.080Z,4.03
2017-07-08T08:44:44.473Z,4.83
2017-07-08T08:47:10.900Z,3.83
2017-07-08T08:49:37.333Z,3.73
2017-07-08T08:52:03.719Z,3.93
2017-07-08T08:54:30.162Z,4.17
2017-07-08T08:56:57.345Z,3.70
2017-07-08T08:59:23.777Z,3.50
2017-07-08T09:01:50.218Z,4.50
2017-07-08T09:04:16.649Z,4.07
2017-07-08T09:06:43.096Z,3.53
2017-07-08T09:09:09.494Z,4.07
2017-07-08T09:11:36.686Z,3.77
2017-07-08T09:14:03.194Z,3.87
2017-07-08T09:16:29.617Z,3.60
2017-07-08T09:18:56.778Z,4.00
2017-07-08T09:21:23.217Z,3.90
2017-07-08T09:23:49.611Z,4.03
2017-07-08T09:26:16.023Z,3.50
2017-07-08T09:28:42.401Z,3.10
2017-07-08T09:31:08.802Z,3.27
2017-07-08T09:33:35.217Z,3.17
2017-07-08T09:36:01.648Z,3.30
2017-07-08T09:38:28.089Z,3.20
2017-07-08T09:40:54.489Z,2.90
2017-07-08T09:43:20.935Z,3.07
2017-07-08T09:45:47.352Z,2.93
2017-07-08T09:48:13.777Z,2.23
2017-07-08T09:50:40.189Z,2.90
2017-07-08T09:53:07.323Z,3.00
2017-07-08T09:55:34.494Z,2.83
2017-07-08T09:58:00.912Z,2.60
2017-07-08T10:00:28.062Z,2.73
2017-07-08T10:02:55.205Z,2.60
2017-07-08T10:05:21.595Z,2.80
2017-07-08T10:07:48.013Z,2.50
2017-07-08T10:10:14.426Z,2.93
2017-07-08T10:12:55.752Z,3.23
2017-07-08T10:15:22.176Z,3.00
2017-07-08T10:17:48.588Z,3.20
2017-07-08T10:20:14.998Z,2.57
2017-07-08T10:22:41.433Z,2.53
2017-07-08T10:25:07.869Z,2.20
2017-07-08T10:27:35.018Z,1.97
2017-07-08T10:30:02.190Z,2.73
2017-07-08T10:32:28.620Z,2.87
2017-07-08T10:34:55.073Z,2.50
2017-07-08T10:37:21.472Z,2.43
2017-07-08T10:39:47.881Z,2.30
2017-07-08T10:42:14.767Z,2.43
2017-07-08T10:44:41.279Z,2.63
2017-07-08T10:47:07.703Z,2.53
2017-07-08T10:49:34.912Z,2.40
2017-07-08T10:52:01.359Z,2.13
2017-07-08T10:54:27.798Z,1.70
2017-07-08T10:56:54.253Z,2.30
2017-07-08T10:59:21.480Z,1.83
2017-07-08T11:01:47.907Z,1.93
2017-07-08T11:04:14.313Z,2.20
2017-07-08T11:06:40.763Z,2.50
2017-07-08T11:09:07.217Z,2.63
2017-07-08T11:11:33.638Z,2.00
2017-07-08T11:14:00.050Z,2.07
2017-07-08T11:16:26.450Z,2.13
2017-07-08T11:18:52.867Z,1.77
2017-07-08T11:21:19.383Z,2.30
2017-07-08T11:23:46.578Z,2.20
2017-07-08T11:26:13.048Z,2.50
2017-07-08T11:28:39.450Z,2.47
2017-07-08T11:31:05.848Z,2.40
2017-07-08T11:33:32.258Z,2.33
2017-07-08T11:36:05.802Z,2.50
2017-07-08T11:38:32.212Z,2.23
2017-07-08T11:40:58.636Z,2.20
2017-07-08T11:43:25.025Z,2.87
2017-07-08T11:45:51.483Z,2.93
2017-07-08T11:48:17.883Z,2.20
2017-07-08T11:50:44.295Z,4.07
2017-07-08T11:53:10.699Z,2.40
2017-07-08T11:55:37.120Z,2.30
2017-07-08T11:58:03.588Z,2.53
2017-07-08T12:00:30.736Z,2.50
2017-07-08T12:02:57.891Z,2.60
2017-07-08T12:05:25.023Z,2.53
2017-07-08T12:07:51.438Z,2.33
2017-07-08T12:10:17.840Z,2.43
2017-07-08T12:12:44.230Z,2.50
2017-07-08T12:15:10.647Z,2.67
2017-07-08T12:17:37.051Z,2.37
2017-07-08T12:20:03.469Z,2.90
2017-07-08T12:22:29.899Z,2.30
2017-07-08T12:24:57.229Z,2.10
2017-07-08T12:27:24.379Z,2.20
2017-07-08T12:29:51.541Z,2.60
2017-07-08T12:32:17.944Z,2.57
2017-07-08T12:34:44.372Z,2.03
2017-07-08T12:37:10.743Z,2.43
2017-07-08T12:39:37.171Z,2.30
2017-07-08T12:42:03.619Z,2.53
2017-07-08T12:44:30.047Z,2.10
2017-07-08T12:46:56.469Z,1.93
2017-07-08T12:49:22.974Z,2.20
2017-07-08T12:51:49.372Z,2.30
2017-07-08T12:54:15.780Z,2.47
2017-07-08T12:56:42.164Z,2.13
2017-07-08T12:59:08.583Z,2.27
2017-07-08T13:01:34.992Z,1.90
2017-07-08T13:04:01.385Z,2.47
2017-07-08T13:06:27.773Z,2.80
2017-07-08T13:08:54.140Z,3.10
2017-07-08T13:11:20.517Z,3.53
2017-07-08T13:13:46.912Z,2.90
2017-07-08T13:16:13.321Z,2.80
2017-07-08T13:18:39.739Z,2.87
2017-07-08T13:21:06.157Z,3.07
2017-07-08T13:23:32.581Z,2.80
2017-07-08T13:25:59.042Z,2.87
2017-07-08T13:28:25.475Z,2.93
2017-07-08T13:30:51.880Z,2.57
2017-07-08T13:33:18.301Z,3.23
2017-07-08T13:35:44.719Z,3.13
2017-07-08T13:38:11.182Z,3.23
2017-07-08T13:40:37.565Z,3.90
2017-07-08T13:43:03.972Z,3.40
2017-07-08T13:45:30.421Z,3.67
2017-07-08T13:47:56.788Z,3.50
2017-07-08T13:50:23.246Z,3.20
2017-07-08T13:52:50.035Z,3.33
2017-07-08T13:55:16.489Z,2.80
2017-07-08T13:57:43.342Z,2.67
2017-07-08T14:00:09.805Z,3.00
2017-07-08T14:02:36.204Z,3.27
2017-07-08T14:05:03.362Z,3.00
2017-07-08T14:07:29.782Z,3.30
2017-07-08T14:09:56.914Z,3.63
2017-07-08T14:12:30.955Z,3.33
2017-07-08T14:15:03.503Z,3.37
2017-07-08T14:17:29.917Z,3.20
2017-07-08T14:19:56.302Z,3.50
2017-07-08T14:22:22.691Z,3.53
2017-07-08T14:24:49.123Z,4.30
2017-07-08T14:27:15.517Z,3.87
2017-07-08T14:29:41.911Z,3.50
2017-07-08T14:32:09.093Z,3.20
2017-07-08T14:34:35.488Z,3.10
2017-07-08T14:37:01.902Z,3.10
2017-07-08T14:39:28.291Z,2.50
2017-07-08T14:41:54.725Z,2.63
2017-07-08T14:44:21.119Z,2.67
2017-07-08T14:46:47.512Z,2.60
2017-07-08T14:49:13.921Z,3.40
2017-07-08T14:51:40.372Z,3.20
2017-07-08T14:54:06.782Z,2.80
2017-07-08T14:56:33.152Z,2.90
2017-07-08T14:58:59.566Z,2.70
2017-07-08T15:01:26.001Z,2.50
2017-07-08T15:03:52.385Z,2.50
2017-07-08T15:06:19.533Z,3.50
2017-07-08T15:08:45.941Z,3.07
2017-07-08T15:11:12.341Z,3.33
2017-07-08T15:13:38.745Z,2.77
2017-07-08T15:16:05.127Z,3.30
2017-07-08T15:18:31.533Z,2.80
2017-07-08T15:20:57.963Z,2.37
2017-07-08T15:23:24.411Z,3.60
2017-07-08T15:25:51.196Z,3.20
2017-07-08T15:28:17.617Z,2.47
2017-07-08T15:30:43.994Z,2.90
2017-07-08T15:33:10.389Z,2.83
2017-07-08T15:35:36.823Z,2.67
2017-07-08T15:38:03.229Z,2.60
2017-07-08T15:40:29.632Z,2.90
2017-07-08T15:42:56.027Z,2.80
2017-07-08T15:45:22.442Z,3.20
2017-07-08T15:47:48.859Z,3.70
2017-07-08T15:50:30.181Z,2.90
2017-07-08T15:52:56.648Z,3.30
2017-07-08T15:55:23.066Z,2.90
2017-07-08T15:57:49.486Z,2.90
2017-07-08T16:00:15.884Z,3.57
2017-07-08T16:02:42.283Z,3.73
2017-07-08T16:05:08.710Z,3.23
2017-07-08T16:07:35.107Z,3.27
2017-07-08T16:10:01.519Z,3.60
2017-07-08T16:12:27.914Z,3.53
2017-07-08T16:14:54.312Z,3.17
2017-07-08T16:17:20.718Z,3.30
2017-07-08T16:19:47.164Z,3.50
2017-07-08T16:22:13.568Z,3.50
2017-07-08T16:24:39.966Z,4.47
2017-07-08T16:27:06.375Z,3.33
2017-07-08T16:29:33.556Z,3.60
2017-07-08T16:31:59.966Z,3.80
2017-07-08T16:34:27.108Z,3.40
2017-07-08T16:36:53.515Z,3.20
2017-07-08T16:39:19.910Z,3.40
2017-07-08T16:41:46.316Z,4.00
2017-07-08T16:44:13.494Z,3.80
2017-07-08T16:46:39.913Z,4.87
2017-07-08T16:49:06.322Z,4.97
2017-07-08T16:51:32.727Z,4.70
2017-07-08T16:53:59.118Z,3.83
2017-07-08T16:56:25.503Z,4.20
2017-07-08T16:58:51.900Z,4.00
2017-07-08T17:01:18.422Z,4.50
2017-07-08T17:03:44.827Z,4.40
2017-07-08T17:06:12.010Z,4.70
2017-07-08T17:08:38.398Z,4.60
2017-07-08T17:11:04.796Z,5.00
2017-07-08T17:13:31.214Z,4.77
2017-07-08T17:15:57.634Z,4.73
2017-07-08T17:18:24.044Z,4.40
2017-07-08T17:20:51.222Z,4.60
2017-07-08T17:23:18.368Z,4.20
2017-07-08T17:25:44.775Z,4.73
2017-07-08T17:28:11.957Z,5.43
2017-07-08T17:30:38.361Z,4.93
2017-07-08T17:33:04.772Z,5.37
2017-07-08T17:35:31.204Z,5.40
2017-07-08T17:37:57.635Z,4.20
2017-07-08T17:40:25.693Z,4.80
2017-07-08T17:42:52.454Z,4.00
2017-07-08T17:45:18.872Z,4.97
2017-07-08T17:47:45.271Z,5.07
2017-07-08T17:50:11.714Z,4.43
2017-07-08T17:52:38.167Z,5.13
2017-07-08T17:55:04.602Z,4.07
2017-07-08T17:57:31.028Z,8.43
2017-07-08T17:59:57.449Z,4.57
2017-07-08T18:02:23.943Z,4.73
2017-07-08T18:04:51.107Z,5.33
2017-07-08T18:07:17.690Z,5.20
2017-07-08T18:09:44.090Z,4.13
2017-07-08T18:12:10.482Z,5.40
2017-07-08T18:14:37.635Z,4.90
2017-07-08T18:17:04.028Z,4.50
2017-07-08T18:19:30.415Z,4.03
2017-07-08T18:21:57.584Z,5.37
2017-07-08T18:24:24.000Z,5.77
2017-07-08T18:26:51.134Z,5.87
2017-07-08T18:29:17.534Z,5.60
2017-07-08T18:31:43.947Z,4.70
2017-07-08T18:34:10.335Z,5.80
2017-07-08T18:36:37.482Z,5.20
2017-07-08T18:39:03.948Z,4.20
2017-07-08T18:41:30.398Z,5.00
2017-07-08T18:43:56.801Z,5.10
2017-07-08T18:46:23.224Z,5.33
2017-07-08T18:48:50.394Z,4.57
2017-07-08T18:51:16.797Z,5.40
2017-07-08T18:53:43.975Z,5.17
2017-07-08T18:56:10.393Z,5.30
2017-07-08T18:58:37.570Z,5.13
2017-07-08T19:01:03.977Z,4.40
2017-07-08T19:03:31.112Z,5.00
2017-07-08T19:05:57.504Z,6.50
2017-07-08T19:08:24.171Z,6.33
2017-07-08T19:10:50.599Z,5.77
2017-07-08T19:13:17.014Z,6.93
2017-07-08T19:15:43.420Z,5.63
2017-07-08T19:18:09.810Z,5.97
2017-07-08T19:20:36.944Z,8.57
2017-07-08T19:23:03.368Z,8.03
2017-07-08T19:25:29.766Z,6.40
2017-07-08T19:27:56.180Z,6.00
2017-07-08T19:30:22.578Z,5.47
2017-07-08T19:32:48.981Z,5.63
2017-07-08T19:35:15.408Z,6.20
2017-07-08T19:37:41.837Z,4.50
2017-07-08T19:40:08.262Z,5.77
2017-07-08T19:42:34.660Z,5.80
2017-07-08T19:45:01.860Z,7.50
2017-07-08T19:47:28.325Z,8.67
2017-07-08T19:49:54.772Z,9.40
2017-07-08T19:52:21.175Z,10.23
2017-07-08T19:54:47.625Z,7.83
2017-07-08T19:57:14.141Z,5.90
2017-07-08T19:59:40.554Z,6.40
2017-07-08T20:02:06.957Z,6.40
2017-07-08T20:04:34.154Z,6.17
2017-07-08T20:07:00.665Z,6.03
2017-07-08T20:09:27.349Z,5.70
2017-07-08T20:11:53.764Z,5.80
2017-07-08T20:14:20.268Z,6.50
2017-07-08T20:16:46.746Z,6.67
2017-07-08T20:19:13.165Z,5.80
2017-07-08T20:21:39.671Z,6.73
2017-07-08T20:24:06.140Z,6.40
2017-07-08T20:26:32.578Z,6.33
2017-07-08T20:28:58.961Z,6.97
2017-07-08T20:31:26.179Z,6.13
2017-07-08T20:33:53.389Z,6.27
2017-07-08T20:36:19.847Z,6.10
2017-07-08T20:38:47.065Z,6.87
2017-07-08T20:41:13.469Z,7.13
2017-07-08T20:43:40.698Z,6.73
2017-07-08T20:46:07.912Z,6.60
2017-07-08T20:48:34.335Z,7.30
2017-07-08T20:51:00.764Z,8.50
2017-07-08T20:53:27.270Z,7.87
2017-07-08T20:55:54.498Z,8.17
2017-07-08T20:58:20.985Z,8.07
2017-07-08T21:00:47.488Z,8.17
2017-07-08T21:03:14.683Z,7.60
2017-07-08T21:05:41.195Z,8.73
2017-07-08T21:08:07.714Z,8.47
2017-07-08T21:10:34.159Z,8.50
2017-07-08T21:13:00.663Z,7.17
2017-07-08T21:15:27.849Z,8.90
2017-07-08T21:17:54.277Z,8.33
2017-07-08T21:20:20.744Z,8.67
2017-07-08T21:22:47.164Z,9.90
2017-07-08T21:25:13.566Z,11.20
2017-07-08T21:27:40.746Z,12.87
2017-07-08T21:30:07.142Z,12.33
2017-07-08T21:32:33.544Z,12.73
2017-07-08T21:34:59.940Z,13.43
2017-07-08T21:37:26.390Z,13.70
2017-07-08T21:39:52.948Z,12.87
2017-07-08T21:42:19.353Z,12.37
2017-07-08T21:44:45.756Z,12.20
2017-07-08T21:47:12.903Z,11.80
2017-07-08T21:49:40.052Z,13.33
2017-07-08T21:52:07.236Z,10.80
2017-07-08T21:54:33.640Z,12.57
2017-07-08T21:57:00.787Z,14.40
2017-07-08T21:59:27.210Z,12.07
2017-07-08T22:01:54.364Z,12.03
2017-07-08T22:04:21.513Z,13.57
2017-07-08T22:06:48.630Z,13.00
2017-07-08T22:09:15.383Z,14.20
2017-07-08T22:11:41.792Z,12.03
2017-07-08T22:14:08.181Z,12.03
2017-07-08T22:16:34.614Z,12.33
2017-07-08T22:19:01.032Z,12.03
2017-07-08T22:21:28.177Z,13.00
2017-07-08T22:23:55.335Z,13.00
2017-07-08T22:26:22.444Z,13.93
2017-07-08T22:28:48.860Z,13.23
2017-07-08T22:31:15.275Z,13.77
2017-07-08T22:33:41.691Z,13.03
2017-07-08T22:36:08.848Z,14.60
2017-07-08T22:38:35.256Z,14.90
2017-07-08T22:41:02.442Z,13.83
2017-07-08T22:43:28.826Z,13.10
2017-07-08T22:45:55.237Z,13.47
2017-07-08T22:48:21.642Z,15.00
2017-07-08T22:50:48.408Z,14.00
2017-07-08T22:53:14.948Z,16.97
2017-07-08T22:55:41.346Z,14.00
2017-07-08T22:58:07.788Z,13.03
2017-07-08T23:00:34.212Z,16.73
2017-07-08T23:03:00.599Z,12.90
2017-07-08T23:05:27.011Z,14.43
2017-07-08T23:07:53.410Z,14.73
2017-07-08T23:10:19.863Z,14.00
2017-07-08T23:12:46.289Z,14.83
2017-07-08T23:15:12.708Z,15.80
2017-07-08T23:17:39.092Z,14.13
2017-07-08T23:20:05.484Z,15.10
2017-07-08T23:22:31.912Z,14.37
2017-07-08T23:24:58.307Z,12.87
2017-07-08T23:27:24.688Z,12.37
2017-07-08T23:29:51.941Z,13.80
2017-07-08T23:32:18.356Z,14.57
2017-07-08T23:34:44.783Z,13.80
2017-07-08T23:37:11.188Z,13.70
2017-07-08T23:39:37.610Z,13.67
2017-07-08T23:42:04.025Z,14.00
2017-07-08T23:44:30.415Z,13.67
2017-07-08T23:46:56.833Z,14.30
2017-07-08T23:49:23.257Z,14.23
2017-07-08T23:51:50.398Z,15.73
2017-07-08T23:54:17.555Z,13.20
2017-07-08T23:56:44.760Z,16.13
2017-07-08T23:59:11.229Z,14.80
